createdAt,value
2019-01-26T00:00:10.725Z,17.00
2019-01-26T00:01:14.101Z,14.00
2019-01-26T00:02:16.977Z,15.00
2019-01-26T00:03:19.890Z,10.50
2019-01-26T00:04:25.163Z,13.00
2019-01-26T00:05:30.622Z,14.00
2019-01-26T00:06:34.690Z,12.00
2019-01-26T00:07:38.469Z,10.50
2019-01-26T00:08:41.373Z,10.50
2019-01-26T00:09:44.344Z,12.00
2019-01-26T00:10:49.995Z,12.00
2019-01-26T00:11:52.975Z,13.50
2019-01-26T00:13:00.993Z,13.00
2019-01-26T00:14:04.217Z,13.00
2019-01-26T00:15:12.314Z,11.50
2019-01-26T00:16:21.200Z,9.50
2019-01-26T00:17:25.655Z,10.50
2019-01-26T00:18:28.544Z,14.00
2019-01-26T00:19:31.404Z,12.50
2019-01-26T00:20:36.562Z,12.00
2019-01-26T00:21:40.197Z,12.50
2019-01-26T00:22:43.100Z,9.50
2019-01-26T00:23:47.289Z,11.00
2019-01-26T00:24:50.269Z,11.00
2019-01-26T00:25:54.521Z,13.00
2019-01-26T00:26:59.368Z,11.00
2019-01-26T00:28:02.269Z,12.00
2019-01-26T00:29:05.182Z,10.00
2019-01-26T00:30:08.730Z,11.00
2019-01-26T00:31:11.619Z,12.00
2019-01-26T00:32:18.770Z,12.00
2019-01-26T00:33:26.761Z,12.50
2019-01-26T00:34:30.263Z,14.00
2019-01-26T00:35:33.521Z,12.50
2019-01-26T00:36:39.242Z,10.00
2019-01-26T00:37:42.118Z,11.50
2019-01-26T00:38:47.814Z,10.50
2019-01-26T00:39:53.799Z,12.00
2019-01-26T00:40:56.711Z,8.00
2019-01-26T00:41:59.660Z,11.00
2019-01-26T00:43:02.536Z,11.50
2019-01-26T00:44:05.745Z,9.00
2019-01-26T00:45:08.972Z,8.50
2019-01-26T00:46:14.917Z,9.50
2019-01-26T00:47:17.705Z,8.00
2019-01-26T00:48:20.722Z,10.00
2019-01-26T00:49:23.962Z,10.00
2019-01-26T00:50:27.100Z,9.50
2019-01-26T00:51:32.798Z,10.00
2019-01-26T00:52:38.686Z,8.00
2019-01-26T00:53:41.498Z,8.00
2019-01-26T00:54:44.480Z,10.00
2019-01-26T00:55:50.504Z,8.50
2019-01-26T00:57:01.576Z,10.50
2019-01-26T00:58:04.927Z,11.50
2019-01-26T00:59:07.760Z,9.50
2019-01-26T01:00:11.014Z,11.00
2019-01-26T01:01:13.930Z,6.00
2019-01-26T01:02:16.913Z,9.50
2019-01-26T01:03:20.119Z,6.00
2019-01-26T01:04:23.324Z,9.00
2019-01-26T01:05:26.363Z,10.50
2019-01-26T01:06:29.111Z,6.50
2019-01-26T01:07:31.882Z,7.50
2019-01-26T01:08:37.561Z,7.50
2019-01-26T01:09:43.409Z,10.00
2019-01-26T01:10:46.818Z,7.00
2019-01-26T01:11:49.787Z,6.00
2019-01-26T01:12:52.673Z,6.00
2019-01-26T01:13:55.866Z,6.50
2019-01-26T01:14:58.615Z,8.00
2019-01-26T01:16:01.656Z,8.00
2019-01-26T01:17:06.282Z,8.00
2019-01-26T01:18:14.141Z,6.00
2019-01-26T01:19:17.104Z,8.00
2019-01-26T01:20:21.672Z,8.00
2019-01-26T01:21:24.525Z,6.00
2019-01-26T01:22:27.523Z,6.00
2019-01-26T01:23:30.725Z,6.50
2019-01-26T01:24:33.640Z,6.00
2019-01-26T01:25:36.426Z,6.00
2019-01-26T01:26:44.263Z,6.00
2019-01-26T01:27:47.141Z,10.00
2019-01-26T01:28:49.920Z,6.50
2019-01-26T01:29:53.284Z,6.00
2019-01-26T01:30:56.082Z,6.00
2019-01-26T01:32:01.363Z,8.00
2019-01-26T01:33:04.567Z,8.00
2019-01-26T01:34:07.309Z,6.00
2019-01-26T01:35:10.773Z,8.00
2019-01-26T01:36:13.933Z,10.00
2019-01-26T01:37:16.756Z,6.00
2019-01-26T01:38:19.563Z,6.00
2019-01-26T01:39:22.413Z,6.00
2019-01-26T01:40:25.188Z,7.50
2019-01-26T01:41:27.922Z,7.50
2019-01-26T01:42:31.011Z,5.50
2019-01-26T01:43:33.771Z,6.50
2019-01-26T01:44:36.664Z,6.50
2019-01-26T01:45:39.459Z,6.50
2019-01-26T01:46:43.006Z,9.00
2019-01-26T01:47:46.174Z,6.00
2019-01-26T01:48:49.294Z,6.00
2019-01-26T01:49:52.049Z,5.00
2019-01-26T01:50:55.223Z,8.00
2019-01-26T01:51:59.997Z,5.00
2019-01-26T01:53:05.271Z,5.50
2019-01-26T01:54:09.903Z,6.00
2019-01-26T01:55:16.060Z,6.00
2019-01-26T01:56:18.883Z,4.00
2019-01-26T01:57:21.815Z,6.00
2019-01-26T01:58:24.559Z,5.00
2019-01-26T01:59:27.769Z,6.00
2019-01-26T02:00:30.635Z,7.00
2019-01-26T02:01:33.812Z,6.00
2019-01-26T02:02:36.563Z,5.00
2019-01-26T02:03:39.311Z,6.50
2019-01-26T02:04:42.116Z,6.00
2019-01-26T02:05:45.410Z,10.00
2019-01-26T02:06:48.283Z,6.00
2019-01-26T02:07:51.302Z,4.00
2019-01-26T02:08:54.130Z,4.00
2019-01-26T02:09:56.882Z,4.00
2019-01-26T02:11:00.156Z,5.50
2019-01-26T02:12:03.418Z,6.50
2019-01-26T02:13:06.212Z,6.50
2019-01-26T02:14:09.376Z,5.00
2019-01-26T02:15:12.168Z,8.00
2019-01-26T02:16:20.168Z,6.00
2019-01-26T02:17:22.507Z,6.00
2019-01-26T02:18:25.229Z,5.50
2019-01-26T02:19:28.032Z,6.00
2019-01-26T02:20:32.326Z,4.00
2019-01-26T02:21:35.188Z,5.50
2019-01-26T02:22:37.906Z,5.50
2019-01-26T02:23:40.809Z,8.00
2019-01-26T02:24:43.702Z,6.00
2019-01-26T02:25:46.969Z,4.00
2019-01-26T02:26:50.079Z,6.00
2019-01-26T02:27:53.905Z,6.00
2019-01-26T02:28:56.817Z,6.00
2019-01-26T02:29:59.656Z,5.50
2019-01-26T02:31:02.513Z,5.00
2019-01-26T02:32:05.298Z,6.00
2019-01-26T02:33:09.994Z,6.00
2019-01-26T02:34:12.710Z,4.00
2019-01-26T02:35:15.554Z,6.00
2019-01-26T02:36:18.283Z,4.00
2019-01-26T02:37:21.150Z,4.50
2019-01-26T02:38:23.861Z,4.00
2019-01-26T02:39:28.082Z,6.00
2019-01-26T02:40:30.804Z,5.00
2019-01-26T02:41:34.109Z,7.00
2019-01-26T02:42:36.908Z,6.00
2019-01-26T02:43:39.727Z,6.00
2019-01-26T02:44:42.444Z,8.00
2019-01-26T02:45:45.659Z,5.00
2019-01-26T02:46:48.457Z,6.00
2019-01-26T02:47:51.287Z,6.00
2019-01-26T02:48:54.041Z,4.00
2019-01-26T02:49:56.793Z,6.00
2019-01-26T02:50:59.899Z,4.00
2019-01-26T02:52:02.715Z,4.50
2019-01-26T02:53:05.667Z,5.00
2019-01-26T02:54:08.825Z,4.50
2019-01-26T02:55:11.649Z,6.00
2019-01-26T02:56:14.445Z,4.50
2019-01-26T02:57:20.486Z,6.00
2019-01-26T02:58:23.243Z,4.50
2019-01-26T02:59:26.181Z,4.50
2019-01-26T03:00:29.061Z,4.50
2019-01-26T03:01:31.853Z,3.50
2019-01-26T03:02:34.664Z,4.50
2019-01-26T03:03:37.746Z,6.00
2019-01-26T03:04:44.061Z,4.00
2019-01-26T03:05:46.862Z,6.00
2019-01-26T03:06:50.111Z,6.00
2019-01-26T03:07:53.008Z,4.00
2019-01-26T03:08:56.514Z,12.00
2019-01-26T03:09:59.996Z,6.00
2019-01-26T03:11:02.843Z,3.50
2019-01-26T03:12:05.681Z,6.00
2019-01-26T03:13:08.491Z,7.00
2019-01-26T03:14:11.505Z,13.50
2019-01-26T03:15:14.280Z,4.50
2019-01-26T03:16:17.406Z,4.00
2019-01-26T03:17:20.215Z,4.50
2019-01-26T03:18:22.956Z,4.00
2019-01-26T03:19:25.762Z,4.00
2019-01-26T03:20:28.539Z,4.00
2019-01-26T03:21:31.321Z,5.00
2019-01-26T03:22:34.426Z,5.50
2019-01-26T03:23:37.346Z,6.00
2019-01-26T03:24:40.090Z,4.00
2019-01-26T03:25:42.832Z,4.00
2019-01-26T03:26:46.018Z,4.00
2019-01-26T03:27:48.751Z,4.00
2019-01-26T03:28:53.015Z,4.00
2019-01-26T03:29:55.835Z,4.00
2019-01-26T03:30:58.750Z,4.00
2019-01-26T03:32:01.551Z,2.00
2019-01-26T03:33:04.325Z,2.00
2019-01-26T03:34:07.555Z,3.50
2019-01-26T03:35:11.194Z,3.00
2019-01-26T03:36:14.079Z,4.00
2019-01-26T03:37:17.629Z,3.50
2019-01-26T03:38:20.423Z,3.50
2019-01-26T03:39:23.228Z,4.00
2019-01-26T03:40:25.948Z,2.00
2019-01-26T03:41:28.703Z,2.00
2019-01-26T03:42:31.498Z,2.00
2019-01-26T03:43:34.331Z,4.00
2019-01-26T03:44:37.581Z,2.00
2019-01-26T03:45:40.919Z,3.00
2019-01-26T03:46:43.757Z,2.00
2019-01-26T03:47:46.648Z,2.00
2019-01-26T03:48:49.472Z,3.00
2019-01-26T03:49:53.703Z,2.50
2019-01-26T03:50:56.937Z,2.00
2019-01-26T03:52:00.558Z,3.50
2019-01-26T03:53:03.379Z,4.00
2019-01-26T03:54:06.182Z,4.00
2019-01-26T03:55:08.985Z,2.00
2019-01-26T03:56:11.913Z,2.50
2019-01-26T03:57:14.735Z,2.00
2019-01-26T03:58:17.975Z,4.00
2019-01-26T03:59:20.690Z,2.00
2019-01-26T04:00:23.519Z,3.00
2019-01-26T04:01:26.304Z,2.00
2019-01-26T04:02:29.219Z,2.00
2019-01-26T04:03:32.213Z,3.00
2019-01-26T04:04:35.920Z,2.00
2019-01-26T04:05:38.728Z,2.00
2019-01-26T04:06:41.680Z,4.00
2019-01-26T04:07:44.651Z,2.00
2019-01-26T04:08:47.379Z,4.00
2019-01-26T04:09:50.210Z,2.00
2019-01-26T04:10:53.478Z,2.00
2019-01-26T04:11:56.603Z,4.00
2019-01-26T04:12:59.339Z,2.00
2019-01-26T04:14:02.233Z,2.50
2019-01-26T04:15:05.037Z,2.00
2019-01-26T04:16:07.830Z,2.50
2019-01-26T04:17:11.810Z,4.00
2019-01-26T04:18:14.537Z,2.00
2019-01-26T04:19:17.277Z,5.00
2019-01-26T04:20:20.124Z,2.00
2019-01-26T04:21:22.932Z,3.00
2019-01-26T04:22:25.824Z,2.00
2019-01-26T04:23:28.941Z,3.50
2019-01-26T04:24:32.224Z,3.00
2019-01-26T04:25:35.493Z,4.00
2019-01-26T04:26:38.232Z,2.00
2019-01-26T04:27:41.115Z,3.50
2019-01-26T04:28:43.849Z,2.50
2019-01-26T04:29:47.023Z,4.00
2019-01-26T04:30:49.845Z,3.50
2019-01-26T04:31:52.635Z,4.00
2019-01-26T04:32:55.401Z,2.50
2019-01-26T04:33:58.208Z,4.00
2019-01-26T04:35:01.489Z,4.00
2019-01-26T04:36:06.174Z,2.00
2019-01-26T04:37:09.371Z,4.00
2019-01-26T04:38:12.122Z,2.00
2019-01-26T04:39:14.977Z,4.00
2019-01-26T04:40:18.019Z,3.00
2019-01-26T04:41:20.737Z,2.00
2019-01-26T04:42:24.420Z,2.00
2019-01-26T04:43:27.240Z,2.00
2019-01-26T04:44:30.277Z,2.00
2019-01-26T04:45:33.430Z,2.00
2019-01-26T04:46:36.402Z,3.50
2019-01-26T04:47:39.167Z,2.50
2019-01-26T04:48:42.883Z,3.00
2019-01-26T04:49:45.710Z,2.00
2019-01-26T04:50:51.390Z,2.00
2019-01-26T04:51:54.291Z,2.00
2019-01-26T04:52:57.085Z,2.00
2019-01-26T04:54:00.303Z,2.50
2019-01-26T04:55:03.605Z,2.00
2019-01-26T04:56:06.632Z,4.00
2019-01-26T04:57:09.380Z,2.00
2019-01-26T04:58:12.186Z,2.00
2019-01-26T04:59:14.901Z,4.00
2019-01-26T05:00:17.782Z,2.00
2019-01-26T05:01:20.935Z,2.00
2019-01-26T05:02:23.675Z,2.00
2019-01-26T05:03:26.488Z,2.00
2019-01-26T05:04:29.361Z,4.00
2019-01-26T05:05:32.261Z,4.00
2019-01-26T05:06:35.187Z,4.00
2019-01-26T05:07:47.349Z,4.00
2019-01-26T05:08:50.184Z,4.00
2019-01-26T05:09:53.137Z,4.00
2019-01-26T05:10:55.970Z,5.50
2019-01-26T05:11:59.294Z,6.00
2019-01-26T05:13:02.032Z,4.00
2019-01-26T05:14:05.212Z,6.00
2019-01-26T05:15:07.985Z,4.50
2019-01-26T05:16:10.805Z,6.00
2019-01-26T05:17:13.615Z,5.50
2019-01-26T05:18:16.336Z,5.00
2019-01-26T05:19:19.607Z,4.00
2019-01-26T05:20:23.063Z,8.00
2019-01-26T05:21:26.386Z,4.00
2019-01-26T05:22:29.716Z,5.00
2019-01-26T05:23:32.457Z,6.00
2019-01-26T05:24:35.290Z,5.50
2019-01-26T05:25:38.153Z,7.50
2019-01-26T05:26:42.923Z,8.00
2019-01-26T05:27:46.235Z,7.50
2019-01-26T05:28:49.088Z,4.50
2019-01-26T05:29:51.876Z,7.50
2019-01-26T05:30:54.705Z,6.00
2019-01-26T05:31:57.491Z,6.00
2019-01-26T05:33:03.205Z,8.00
2019-01-26T05:34:06.254Z,7.50
2019-01-26T05:35:33.058Z,8.00
2019-01-26T05:36:46.255Z,8.00
2019-01-26T05:37:49.011Z,6.00
2019-01-26T05:38:51.938Z,5.50
2019-01-26T05:39:56.434Z,8.00
2019-01-26T05:41:01.567Z,8.00
2019-01-26T05:42:04.507Z,10.50
2019-01-26T05:43:07.529Z,7.50
2019-01-26T05:44:10.308Z,8.00
2019-01-26T05:45:13.340Z,7.50
2019-01-26T05:46:16.582Z,8.00
2019-01-26T05:47:31.855Z,9.50
2019-01-26T05:48:29.169Z,16.00
2019-01-26T05:49:32.119Z,10.00
2019-01-26T05:50:34.852Z,8.00
2019-01-26T05:51:37.764Z,7.50
2019-01-26T05:52:40.861Z,6.00
2019-01-26T05:53:43.678Z,6.00
2019-01-26T05:54:48.982Z,9.00
2019-01-26T05:55:51.756Z,7.00
2019-01-26T05:56:54.586Z,6.50
2019-01-26T05:58:17.199Z,8.00
2019-01-26T05:59:20.316Z,5.50
2019-01-26T06:00:29.499Z,5.50
2019-01-26T06:01:33.524Z,6.00
2019-01-26T06:02:36.279Z,5.00
2019-01-26T06:03:39.324Z,9.00
2019-01-26T06:04:42.202Z,5.50
2019-01-26T06:05:45.068Z,7.50
2019-01-26T06:06:47.887Z,7.50
2019-01-26T06:07:50.896Z,7.00
2019-01-26T06:08:53.794Z,8.50
2019-01-26T06:09:56.906Z,8.00
2019-01-26T06:10:59.911Z,9.00
2019-01-26T06:12:02.659Z,6.00
2019-01-26T06:13:05.457Z,6.50
2019-01-26T06:14:08.285Z,7.50
2019-01-26T06:15:11.592Z,10.00
2019-01-26T06:16:14.939Z,10.00
2019-01-26T06:17:19.155Z,8.00
2019-01-26T06:18:22.059Z,6.00
2019-01-26T06:19:27.466Z,8.50
2019-01-26T06:20:30.296Z,8.50
2019-01-26T06:21:33.641Z,10.00
2019-01-26T06:22:40.861Z,8.00
2019-01-26T06:23:43.585Z,8.00
2019-01-26T06:24:46.348Z,8.00
2019-01-26T06:25:49.160Z,9.00
2019-01-26T06:26:52.130Z,10.50
2019-01-26T06:27:55.096Z,10.00
2019-01-26T06:28:58.418Z,12.00
2019-01-26T06:43:51.139Z,15.00
2019-01-26T06:44:56.270Z,14.00
2019-01-26T06:45:59.139Z,12.00
2019-01-26T06:47:02.401Z,17.50
2019-01-26T06:48:05.303Z,12.75
2019-01-26T06:49:08.945Z,15.75
2019-01-26T06:50:13.252Z,15.00
2019-01-26T06:51:16.246Z,14.00
2019-01-26T06:52:21.754Z,16.00
2019-01-26T06:53:24.625Z,14.50
2019-01-26T06:54:29.817Z,15.00
2019-01-26T06:55:36.239Z,14.00
2019-01-26T06:56:38.853Z,15.50
2019-01-26T06:57:42.197Z,11.50
2019-01-26T06:58:45.075Z,21.50
2019-01-26T06:59:49.782Z,17.00
2019-01-26T07:00:54.261Z,14.00
2019-01-26T07:01:57.612Z,15.00
2019-01-26T07:03:04.661Z,17.00
2019-01-26T07:04:09.706Z,17.00
2019-01-26T07:05:29.914Z,20.50
2019-01-26T07:06:40.960Z,15.00
2019-01-26T07:07:44.294Z,15.50
2019-01-26T07:08:47.244Z,19.50
2019-01-26T07:09:50.260Z,16.00
2019-01-26T07:10:53.179Z,19.50
2019-01-26T07:11:56.113Z,21.50
2019-01-26T07:13:01.911Z,18.00
2019-01-26T07:14:05.203Z,18.50
2019-01-26T07:15:11.047Z,20.00
2019-01-26T07:16:15.337Z,20.50
2019-01-26T07:17:18.556Z,20.50
2019-01-26T07:18:21.574Z,18.00
2019-01-26T07:19:24.466Z,17.00
2019-01-26T07:20:27.739Z,15.00
2019-01-26T07:21:33.079Z,23.50
2019-01-26T07:22:36.468Z,20.00
2019-01-26T07:23:39.393Z,18.00
2019-01-26T07:24:42.405Z,17.50
2019-01-26T07:25:45.491Z,18.00
2019-01-26T07:26:48.665Z,24.00
2019-01-26T07:27:51.617Z,21.00
2019-01-26T07:28:54.500Z,21.00
2019-01-26T07:29:57.499Z,23.50
2019-01-26T07:31:00.973Z,21.00
2019-01-26T07:32:03.877Z,18.00
2019-01-26T07:33:10.024Z,23.00
2019-01-26T07:34:15.851Z,16.50
2019-01-26T07:35:18.780Z,17.50
2019-01-26T07:36:21.864Z,21.50
2019-01-26T07:37:24.769Z,17.50
2019-01-26T07:38:27.759Z,20.50
2019-01-26T07:39:30.988Z,21.50
2019-01-26T07:40:33.921Z,18.00
2019-01-26T07:41:39.272Z,21.00
2019-01-26T07:42:41.435Z,20.50
2019-01-26T07:43:44.386Z,20.00
2019-01-26T07:44:49.968Z,20.50
2019-01-26T07:45:57.251Z,19.50
2019-01-26T07:46:57.764Z,22.00
2019-01-26T07:48:01.954Z,20.00
2019-01-26T07:49:05.304Z,19.00
2019-01-26T07:50:11.197Z,20.50
2019-01-26T07:51:14.106Z,22.00
2019-01-26T07:52:18.949Z,20.00
2019-01-26T07:53:23.448Z,18.00
2019-01-26T07:54:32.651Z,28.00
2019-01-26T07:55:35.517Z,22.00
2019-01-26T07:56:41.626Z,22.00
2019-01-26T07:57:46.811Z,18.00
2019-01-26T07:58:51.861Z,20.50
2019-01-26T07:59:54.736Z,20.50
2019-01-26T08:00:57.658Z,22.50
2019-01-26T08:02:00.564Z,20.50
2019-01-26T08:03:06.783Z,22.00
2019-01-26T08:04:09.737Z,21.50
2019-01-26T08:05:12.947Z,19.00
2019-01-26T08:06:15.908Z,26.00
2019-01-26T08:07:18.860Z,18.50
2019-01-26T08:08:21.801Z,20.50
2019-01-26T08:09:24.705Z,24.50
2019-01-26T08:10:27.681Z,20.50
2019-01-26T08:11:30.882Z,27.50
2019-01-26T08:12:34.247Z,24.50
2019-01-26T08:13:43.122Z,22.50
2019-01-26T08:14:46.091Z,21.00
2019-01-26T08:15:49.483Z,18.00
2019-01-26T08:16:52.379Z,25.00
2019-01-26T08:17:55.617Z,17.00
2019-01-26T08:18:58.520Z,17.50
2019-01-26T08:20:01.407Z,24.50
2019-01-26T08:21:04.402Z,19.00
2019-01-26T08:22:10.482Z,19.00
2019-01-26T08:23:13.402Z,19.00
2019-01-26T08:24:16.612Z,17.50
2019-01-26T08:25:19.495Z,23.00
2019-01-26T08:26:23.650Z,17.50
2019-01-26T08:27:28.083Z,23.50
2019-01-26T08:28:32.641Z,14.50
2019-01-26T08:29:35.572Z,16.00
2019-01-26T08:30:38.881Z,20.50
2019-01-26T08:31:41.889Z,17.50
2019-01-26T08:32:44.828Z,17.50
2019-01-26T08:33:47.798Z,18.00
2019-01-26T08:34:51.146Z,19.00
2019-01-26T08:35:56.778Z,19.00
2019-01-26T08:37:02.145Z,17.50
2019-01-26T08:38:05.064Z,21.00
2019-01-26T08:39:09.591Z,20.00
2019-01-26T08:40:12.521Z,20.00
2019-01-26T08:41:18.374Z,25.50
2019-01-26T08:42:21.476Z,20.00
2019-01-26T08:43:25.310Z,24.50
2019-01-26T08:44:28.717Z,22.00
2019-01-26T08:45:32.058Z,21.00
2019-01-26T08:46:41.026Z,23.50
2019-01-26T08:47:44.337Z,27.00
2019-01-26T08:48:47.314Z,24.00
2019-01-26T08:49:50.678Z,25.00
2019-01-26T08:50:56.661Z,21.00
2019-01-26T08:51:59.554Z,21.00
2019-01-26T08:53:02.598Z,23.50
2019-01-26T08:54:05.635Z,24.50
2019-01-26T08:55:09.050Z,24.00
2019-01-26T08:56:12.341Z,20.50
2019-01-26T08:57:23.563Z,20.50
2019-01-26T08:58:26.584Z,26.00
2019-01-26T08:59:29.535Z,22.00
2019-01-26T09:00:32.434Z,26.00
2019-01-26T09:01:35.419Z,25.00
2019-01-26T09:03:09.439Z,25.00
2019-01-26T09:04:24.788Z,22.00
2019-01-26T09:05:28.914Z,21.00
2019-01-26T09:06:40.641Z,20.00
2019-01-26T09:07:45.184Z,20.00
2019-01-26T09:08:49.861Z,25.00
2019-01-26T09:09:52.832Z,24.50
2019-01-26T09:10:57.954Z,21.00
2019-01-26T09:12:00.851Z,23.00
2019-01-26T09:13:04.796Z,22.00
2019-01-26T09:14:07.740Z,21.50
2019-01-26T09:15:12.561Z,21.50
2019-01-26T09:16:22.139Z,26.50
2019-01-26T09:17:25.040Z,25.00
2019-01-26T09:18:27.945Z,22.50
2019-01-26T09:19:33.099Z,21.50
2019-01-26T09:20:37.891Z,19.00
2019-01-26T09:21:42.749Z,21.00
2019-01-26T09:22:45.689Z,21.50
2019-01-26T09:23:48.661Z,19.00
2019-01-26T09:24:51.594Z,24.50
2019-01-26T09:25:55.874Z,25.00
2019-01-26T09:27:00.823Z,19.00
2019-01-26T09:28:09.461Z,20.00
2019-01-26T09:29:12.463Z,23.00
2019-01-26T09:30:15.408Z,19.50
2019-01-26T09:31:19.379Z,21.50
2019-01-26T09:32:22.273Z,24.00
2019-01-26T09:33:25.200Z,22.00
2019-01-26T09:34:28.582Z,24.00
2019-01-26T09:35:32.654Z,14.50
2019-01-26T09:36:35.639Z,15.50
2019-01-26T09:37:38.672Z,18.50
2019-01-26T09:38:41.680Z,16.50
2019-01-26T09:39:48.987Z,21.50
2019-01-26T09:40:55.223Z,20.00
2019-01-26T09:41:58.231Z,22.00
2019-01-26T09:43:01.177Z,17.00
2019-01-26T09:44:04.092Z,17.50
2019-01-26T09:45:10.110Z,20.00
2019-01-26T09:46:15.887Z,19.00
2019-01-26T09:47:20.240Z,21.00
2019-01-26T09:48:23.336Z,25.00
2019-01-26T09:49:26.292Z,21.00
2019-01-26T09:50:29.171Z,17.00
2019-01-26T09:51:32.196Z,21.50
2019-01-26T09:52:35.151Z,19.00
2019-01-26T09:53:41.192Z,20.50
2019-01-26T09:55:02.028Z,20.00
2019-01-26T09:56:04.927Z,17.50
2019-01-26T09:57:07.886Z,27.00
2019-01-26T09:58:11.734Z,18.50
2019-01-26T09:59:14.788Z,18.00
2019-01-26T10:00:18.582Z,17.50
2019-01-26T10:01:24.939Z,20.50
2019-01-26T10:02:27.874Z,22.00
2019-01-26T10:03:30.797Z,20.00
2019-01-26T10:04:34.698Z,16.00
2019-01-26T10:05:37.605Z,20.50
2019-01-26T10:06:40.831Z,17.50
2019-01-26T10:07:43.786Z,24.00
2019-01-26T10:08:46.743Z,18.00
2019-01-26T10:09:49.651Z,18.00
2019-01-26T10:10:52.552Z,21.00
2019-01-26T10:11:55.482Z,18.50
2019-01-26T10:12:58.898Z,19.50
2019-01-26T10:14:02.421Z,21.00
2019-01-26T10:15:05.769Z,21.00
2019-01-26T10:16:08.930Z,18.50
2019-01-26T10:17:21.475Z,20.50
2019-01-26T10:18:27.879Z,20.00
2019-01-26T10:19:30.829Z,16.50
2019-01-26T10:20:33.751Z,26.00
2019-01-26T10:21:39.175Z,20.00
2019-01-26T10:22:42.235Z,20.00
2019-01-26T10:23:48.377Z,22.00
2019-01-26T10:24:51.547Z,22.00
2019-01-26T10:25:54.748Z,18.50
2019-01-26T10:27:00.160Z,15.50
2019-01-26T10:28:03.201Z,21.00
2019-01-26T10:29:07.399Z,19.00
2019-01-26T10:30:10.398Z,19.00
2019-01-26T10:31:13.447Z,18.50
2019-01-26T10:32:17.999Z,21.00
2019-01-26T10:33:28.873Z,18.00
2019-01-26T10:34:32.699Z,21.00
2019-01-26T10:35:54.865Z,24.00
2019-01-26T10:38:23.757Z,15.50
2019-01-26T10:39:36.218Z,20.00
2019-01-26T10:41:15.064Z,18.00
2019-01-26T10:42:22.122Z,14.00
2019-01-26T10:43:25.430Z,16.00
2019-01-26T10:44:30.191Z,18.00
2019-01-26T10:45:35.825Z,18.00
2019-01-26T10:46:39.261Z,17.00
2019-01-26T10:47:46.991Z,14.00
2019-01-26T10:49:00.628Z,14.00
2019-01-26T10:50:14.985Z,15.00
2019-01-26T10:51:20.580Z,10.00
2019-01-26T10:52:23.581Z,13.00
2019-01-26T10:53:28.976Z,14.00
2019-01-26T10:54:37.071Z,16.00
2019-01-26T10:55:43.748Z,13.50
2019-01-26T10:56:46.653Z,15.50
2019-01-26T10:58:05.533Z,10.00
2019-01-26T10:59:04.405Z,12.00
2019-01-26T11:00:28.314Z,13.00
2019-01-26T11:01:31.372Z,10.00
2019-01-26T11:02:35.486Z,12.00
2019-01-26T11:03:40.217Z,10.00
2019-01-26T11:04:43.487Z,10.00
2019-01-26T11:05:46.377Z,11.50
2019-01-26T11:06:49.641Z,10.00
2019-01-26T11:07:52.818Z,12.00
2019-01-26T11:08:55.947Z,9.00
2019-01-26T11:10:01.697Z,9.00
2019-01-26T11:11:05.092Z,11.50
2019-01-26T11:12:10.594Z,11.50
2019-01-26T11:13:15.938Z,10.00
2019-01-26T11:14:21.815Z,8.50
2019-01-26T11:15:29.394Z,11.50
2019-01-26T11:16:37.015Z,10.00
2019-01-26T11:17:42.779Z,8.00
2019-01-26T11:18:49.002Z,10.50
2019-01-26T11:19:52.419Z,11.00
2019-01-26T11:20:55.503Z,11.50
2019-01-26T11:21:59.768Z,10.00
2019-01-26T11:23:03.249Z,11.00
2019-01-26T11:24:06.127Z,10.00
2019-01-26T11:25:11.293Z,10.00
2019-01-26T11:26:17.221Z,8.00
2019-01-26T11:27:20.492Z,10.00
2019-01-26T11:28:30.107Z,10.50
2019-01-26T11:29:38.814Z,10.00
2019-01-26T11:43:05.998Z,13.50
2019-01-26T11:44:09.340Z,14.50
2019-01-26T11:45:33.801Z,10.00
2019-01-26T11:46:40.829Z,11.00
2019-01-26T11:47:45.936Z,9.00
2019-01-26T11:48:51.183Z,13.25
2019-01-26T11:49:59.471Z,13.75
2019-01-26T11:51:19.465Z,13.75
2019-01-26T11:52:25.255Z,15.50
2019-01-26T11:53:28.847Z,19.25
2019-01-26T11:54:47.170Z,14.00
2019-01-26T11:56:18.344Z,16.00
2019-01-26T11:57:23.201Z,14.00
2019-01-26T11:58:26.823Z,19.50
2019-01-26T11:59:29.872Z,15.50
2019-01-26T12:00:59.499Z,17.50
2019-01-26T12:02:29.883Z,16.00
2019-01-26T12:03:34.886Z,17.50
2019-01-26T12:04:59.787Z,16.00
2019-01-26T12:06:09.640Z,17.50
2019-01-26T12:07:17.503Z,10.00
2019-01-26T12:08:34.393Z,14.00
2019-01-26T12:09:33.952Z,18.00
2019-01-26T12:10:36.793Z,19.50
2019-01-26T12:11:39.953Z,16.00
2019-01-26T12:12:45.625Z,15.50
2019-01-26T12:13:51.166Z,16.50
2019-01-26T12:14:55.725Z,16.00
2019-01-26T12:15:58.889Z,18.50
2019-01-26T12:17:03.464Z,19.00
2019-01-26T12:18:13.198Z,16.50
2019-01-26T12:19:22.306Z,17.50
2019-01-26T12:20:28.131Z,20.00
2019-01-26T12:21:31.197Z,18.50
2019-01-26T12:22:36.274Z,15.00
2019-01-26T12:23:39.249Z,16.50
2019-01-26T12:24:44.511Z,18.00
2019-01-26T12:26:03.107Z,18.00
2019-01-26T12:26:58.853Z,18.50
2019-01-26T12:28:02.697Z,14.50
2019-01-26T12:29:05.876Z,17.50
2019-01-26T12:30:14.390Z,17.00
2019-01-26T12:31:20.568Z,18.50
2019-01-26T12:32:24.983Z,16.00
2019-01-26T12:33:27.894Z,18.00
2019-01-26T12:34:30.893Z,20.00
2019-01-26T12:35:34.157Z,18.50
2019-01-26T12:36:37.054Z,18.00
2019-01-26T12:37:42.113Z,21.00
2019-01-26T12:38:45.349Z,18.50
2019-01-26T12:39:48.335Z,22.00
2019-01-26T12:40:51.706Z,21.25
2019-01-26T12:41:54.661Z,18.25
2019-01-26T12:42:59.309Z,22.00
2019-01-26T12:44:07.222Z,22.75
2019-01-26T12:45:11.144Z,22.00
2019-01-26T12:46:15.589Z,27.25
2019-01-26T12:47:18.604Z,23.25
2019-01-26T12:48:22.378Z,21.75
2019-01-26T12:49:31.207Z,20.25
2019-01-26T12:50:34.349Z,24.25
2019-01-26T12:51:37.709Z,20.25
2019-01-26T12:52:40.813Z,26.50
2019-01-26T12:53:44.293Z,28.00
2019-01-26T12:54:47.745Z,19.75
2019-01-26T12:55:50.998Z,21.25
2019-01-26T12:56:57.326Z,20.50
2019-01-26T12:58:06.063Z,23.50
2019-01-26T12:59:09.794Z,20.25
2019-01-26T13:00:13.705Z,26.75
2019-01-26T13:01:18.189Z,24.75
2019-01-26T13:02:22.414Z,21.75
2019-01-26T13:03:29.890Z,26.25
2019-01-26T13:04:34.693Z,24.25
2019-01-26T13:05:41.672Z,20.75
2019-01-26T13:06:49.758Z,24.25
2019-01-26T13:07:54.695Z,20.75
2019-01-26T13:08:59.933Z,21.75
2019-01-26T13:10:14.195Z,21.00
2019-01-26T13:11:23.594Z,23.25
2019-01-26T13:12:30.172Z,27.25
2019-01-26T13:13:35.341Z,20.50
2019-01-26T13:14:40.646Z,23.50
2019-01-26T13:15:44.710Z,19.75
2019-01-26T13:16:51.124Z,22.75
2019-01-26T13:17:54.123Z,23.50
2019-01-26T13:18:57.266Z,21.25
2019-01-26T13:20:03.805Z,22.75
2019-01-26T13:21:09.088Z,24.75
2019-01-26T13:22:12.062Z,23.00
2019-01-26T13:23:16.945Z,21.00
2019-01-26T13:24:19.907Z,17.00
2019-01-26T13:25:23.024Z,25.25
2019-01-26T13:26:29.360Z,23.75
2019-01-26T13:27:42.821Z,22.75
2019-01-26T13:28:46.327Z,24.50
2019-01-26T13:29:50.210Z,24.50
2019-01-26T13:30:55.282Z,21.50
2019-01-26T13:32:04.274Z,28.50
2019-01-26T13:33:07.271Z,21.50
2019-01-26T13:34:12.623Z,22.00
2019-01-26T13:35:16.137Z,25.75
2019-01-26T13:36:19.030Z,25.75
2019-01-26T13:37:21.996Z,27.25
2019-01-26T13:38:27.995Z,21.25
2019-01-26T13:39:31.227Z,23.25
2019-01-26T13:40:34.128Z,21.50
2019-01-26T13:41:39.626Z,27.75
2019-01-26T13:42:43.339Z,23.00
2019-01-26T13:43:46.580Z,24.50
2019-01-26T13:44:49.527Z,22.00
2019-01-26T13:45:52.507Z,21.00
2019-01-26T13:46:56.697Z,19.00
2019-01-26T13:48:00.826Z,20.00
2019-01-26T13:49:09.483Z,25.00
2019-01-26T13:50:12.611Z,21.75
2019-01-26T13:51:17.166Z,23.25
2019-01-26T13:52:22.606Z,20.00
2019-01-26T13:53:46.034Z,23.25
2019-01-26T13:54:49.319Z,28.25
2019-01-26T13:55:52.652Z,23.00
2019-01-26T13:56:55.840Z,21.25
2019-01-26T13:58:02.395Z,18.75
2019-01-26T13:59:10.822Z,17.25
2019-01-26T14:00:14.453Z,15.50
2019-01-26T14:01:20.315Z,21.25
2019-01-26T14:02:23.321Z,21.00
2019-01-26T14:03:27.004Z,19.50
2019-01-26T14:04:30.008Z,15.75
2019-01-26T14:05:33.141Z,18.25
2019-01-26T14:06:38.314Z,18.50
2019-01-26T14:07:46.568Z,16.00
2019-01-26T14:08:52.475Z,18.25
2019-01-26T14:09:58.605Z,16.00
2019-01-26T14:11:10.916Z,21.50
2019-01-26T14:12:15.953Z,17.00
2019-01-26T14:13:21.776Z,16.50
2019-01-26T14:14:24.789Z,12.00
2019-01-26T14:15:27.726Z,13.75
2019-01-26T14:16:31.084Z,17.00
2019-01-26T14:17:37.260Z,14.75
2019-01-26T14:18:42.919Z,17.75
2019-01-26T14:19:51.228Z,11.25
2019-01-26T14:20:50.695Z,16.50
2019-01-26T14:22:24.223Z,17.00
2019-01-26T14:22:58.485Z,15.25
2019-01-26T14:24:01.682Z,17.00
2019-01-26T14:25:10.532Z,13.50
2019-01-26T14:26:13.722Z,11.00
2019-01-26T14:27:16.699Z,11.00
2019-01-26T14:28:19.589Z,11.00